sensor_id;sensor_type;location;lat;lon;timestamp;temperature;humidity
4453;DHT22;2239;48.152;11.584;2023-06-22T00:00:48;21.30;99.90
4453;DHT22;2239;48.152;11.584;2023-06-22T00:03:14;21.20;99.90
4453;DHT22;2239;48.152;11.584;2023-06-22T00:05:39;21.20;99.90
4453;DHT22;2239;48.152;11.584;2023-06-22T00:08:05;21.00;99.90
4453;DHT22;2239;48.152;11.584;2023-06-22T00:10:31;21.00;99.90
4453;DHT22;2239;48.152;11.584;2023-06-22T00:12:56;21.00;99.90
4453;DHT22;2239;48.152;11.584;2023-06-22T00:15:22;21.00;99.90
4453;DHT22;2239;48.152;11.584;2023-06-22T00:17:48;20.90;99.90
4453;DHT22;2239;48.152;11.584;2023-06-22T00:20:14;20.80;99.90
4453;DHT22;2239;48.152;11.584;2023-06-22T00:22:39;20.80;99.90
4453;DHT22;2239;48.152;11.584;2023-06-22T00:25:06;20.80;99.90
4453;DHT22;2239;48.152;11.584;2023-06-22T00:27:32;20.70;99.90
4453;DHT22;2239;48.152;11.584;2023-06-22T00:29:58;20.70;99.90
4453;DHT22;2239;48.152;11.584;2023-06-22T00:32:23;20.70;99.90
4453;DHT22;2239;48.152;11.584;2023-06-22T00:34:49;20.60;99.90
4453;DHT22;2239;48.152;11.584;2023-06-22T00:37:16;20.60;99.90
4453;DHT22;2239;48.152;11.584;2023-06-22T00:39:42;20.70;99.90
4453;DHT22;2239;48.152;11.584;2023-06-22T00:42:08;20.70;99.90
4453;DHT22;2239;48.152;11.584;2023-06-22T00:44:35;20.70;99.90
4453;DHT22;2239;48.152;11.584;2023-06-22T00:47:01;20.80;99.90
4453;DHT22;2239;48.152;11.584;2023-06-22T00:49:27;20.80;99.90
4453;DHT22;2239;48.152;11.584;2023-06-22T00:51:52;20.80;99.90
4453;DHT22;2239;48.152;11.584;2023-06-22T00:54:18;20.80;99.90
4453;DHT22;2239;48.152;11.584;2023-06-22T00:56:51;20.90;99.90
4453;DHT22;2239;48.152;11.584;2023-06-22T00:59:18;20.80;99.90
4453;DHT22;2239;48.152;11.584;2023-06-22T01:01:44;20.80;99.90
4453;DHT22;2239;48.152;11.584;2023-06-22T01:04:10;20.70;99.90
4453;DHT22;2239;48.152;11.584;2023-06-22T01:06:41;20.70;99.90
4453;DHT22;2239;48.152;11.584;2023-06-22T01:09:24;20.70;99.90
4453;DHT22;2239;48.152;11.584;2023-06-22T01:11:58;20.70;99.90
4453;DHT22;2239;48.152;11.584;2023-06-22T01:17:07;20.60;99.90
4453;DHT22;2239;48.152;11.584;2023-06-22T01:19:51;20.60;99.90
4453;DHT22;2239;48.152;11.584;2023-06-22T01:22:25;20.50;99.90
4453;DHT22;2239;48.152;11.584;2023-06-22T01:24:55;20.50;99.90
4453;DHT22;2239;48.152;11.584;2023-06-22T01:29:59;20.40;99.90
4453;DHT22;2239;48.152;11.584;2023-06-22T01:32:30;20.30;99.90
4453;DHT22;2239;48.152;11.584;2023-06-22T01:34:58;20.40;99.90
4453;DHT22;2239;48.152;11.584;2023-06-22T01:37:25;20.40;99.90
4453;DHT22;2239;48.152;11.584;2023-06-22T01:39:51;20.40;99.90
4453;DHT22;2239;48.152;11.584;2023-06-22T01:42:18;20.40;99.90
4453;DHT22;2239;48.152;11.584;2023-06-22T01:44:44;20.40;99.90
4453;DHT22;2239;48.152;11.584;2023-06-22T01:47:10;20.50;99.90
4453;DHT22;2239;48.152;11.584;2023-06-22T01:49:36;20.40;99.90
4453;DHT22;2239;48.152;11.584;2023-06-22T01:52:02;20.40;99.90
4453;DHT22;2239;48.152;11.584;2023-06-22T01:54:29;20.40;99.90
4453;DHT22;2239;48.152;11.584;2023-06-22T01:56:55;20.40;99.90
4453;DHT22;2239;48.152;11.584;2023-06-22T01:59:28;20.40;99.90
4453;DHT22;2239;48.152;11.584;2023-06-22T02:02:06;20.40;99.90
4453;DHT22;2239;48.152;11.584;2023-06-22T02:04:57;20.30;99.90
4453;DHT22;2239;48.152;11.584;2023-06-22T02:07:29;20.10;99.90
4453;DHT22;2239;48.152;11.584;2023-06-22T02:09:58;20.10;99.90
4453;DHT22;2239;48.152;11.584;2023-06-22T02:12:25;20.00;99.90
4453;DHT22;2239;48.152;11.584;2023-06-22T02:14:52;20.00;99.90
4453;DHT22;2239;48.152;11.584;2023-06-22T02:17:18;19.90;99.90
4453;DHT22;2239;48.152;11.584;2023-06-22T02:19:44;19.80;99.90
4453;DHT22;2239;48.152;11.584;2023-06-22T02:22:10;19.80;99.90
4453;DHT22;2239;48.152;11.584;2023-06-22T02:24:35;19.80;99.90
4453;DHT22;2239;48.152;11.584;2023-06-22T02:27:02;19.70;99.90
4453;DHT22;2239;48.152;11.584;2023-06-22T02:29:28;19.70;99.90
4453;DHT22;2239;48.152;11.584;2023-06-22T02:31:54;19.60;99.90
4453;DHT22;2239;48.152;11.584;2023-06-22T02:34:21;19.60;99.90
4453;DHT22;2239;48.152;11.584;2023-06-22T02:36:48;19.60;99.90
4453;DHT22;2239;48.152;11.584;2023-06-22T02:39:19;19.60;99.90
4453;DHT22;2239;48.152;11.584;2023-06-22T02:41:45;19.50;99.90
4453;DHT22;2239;48.152;11.584;2023-06-22T02:44:10;19.50;99.90
4453;DHT22;2239;48.152;11.584;2023-06-22T02:46:36;19.50;99.90
4453;DHT22;2239;48.152;11.584;2023-06-22T02:49:02;19.40;99.90
4453;DHT22;2239;48.152;11.584;2023-06-22T02:51:27;19.50;99.90
4453;DHT22;2239;48.152;11.584;2023-06-22T02:53:53;19.50;99.90
4453;DHT22;2239;48.152;11.584;2023-06-22T02:56:22;19.50;99.90
4453;DHT22;2239;48.152;11.584;2023-06-22T02:58:50;19.50;99.90
4453;DHT22;2239;48.152;11.584;2023-06-22T03:01:16;19.50;99.90
4453;DHT22;2239;48.152;11.584;2023-06-22T03:03:42;19.60;99.90
4453;DHT22;2239;48.152;11.584;2023-06-22T03:06:07;19.60;99.90
4453;DHT22;2239;48.152;11.584;2023-06-22T03:08:33;19.60;99.90
4453;DHT22;2239;48.152;11.584;2023-06-22T03:10:58;19.50;99.90
4453;DHT22;2239;48.152;11.584;2023-06-22T03:13:24;19.40;99.90
4453;DHT22;2239;48.152;11.584;2023-06-22T03:15:49;19.30;99.90
4453;DHT22;2239;48.152;11.584;2023-06-22T03:18:15;19.20;99.90
4453;DHT22;2239;48.152;11.584;2023-06-22T03:20:41;19.20;99.90
4453;DHT22;2239;48.152;11.584;2023-06-22T03:23:06;19.20;99.90
4453;DHT22;2239;48.152;11.584;2023-06-22T03:25:32;19.20;99.90
4453;DHT22;2239;48.152;11.584;2023-06-22T03:27:59;19.20;99.90
4453;DHT22;2239;48.152;11.584;2023-06-22T03:30:26;19.20;99.90
4453;DHT22;2239;48.152;11.584;2023-06-22T03:32:51;19.20;99.90
4453;DHT22;2239;48.152;11.584;2023-06-22T03:35:17;19.20;99.90
4453;DHT22;2239;48.152;11.584;2023-06-22T03:37:42;19.10;99.90
4453;DHT22;2239;48.152;11.584;2023-06-22T03:40:08;19.00;99.90
4453;DHT22;2239;48.152;11.584;2023-06-22T03:42:34;19.00;99.90
4453;DHT22;2239;48.152;11.584;2023-06-22T03:45:04;19.00;99.90
4453;DHT22;2239;48.152;11.584;2023-06-22T03:47:29;19.00;99.90
4453;DHT22;2239;48.152;11.584;2023-06-22T03:49:55;19.00;99.90
4453;DHT22;2239;48.152;11.584;2023-06-22T03:52:21;19.00;99.90
4453;DHT22;2239;48.152;11.584;2023-06-22T03:54:47;19.00;99.90
4453;DHT22;2239;48.152;11.584;2023-06-22T03:57:13;19.00;99.90
4453;DHT22;2239;48.152;11.584;2023-06-22T03:59:39;19.00;99.90
4453;DHT22;2239;48.152;11.584;2023-06-22T04:02:04;19.00;99.90
4453;DHT22;2239;48.152;11.584;2023-06-22T04:04:30;19.00;99.90
4453;DHT22;2239;48.152;11.584;2023-06-22T04:06:55;19.00;99.90
4453;DHT22;2239;48.152;11.584;2023-06-22T04:09:21;19.00;99.90
4453;DHT22;2239;48.152;11.584;2023-06-22T04:11:47;19.10;99.90
4453;DHT22;2239;48.152;11.584;2023-06-22T04:14:12;19.20;99.90
4453;DHT22;2239;48.152;11.584;2023-06-22T04:16:38;19.20;99.90
4453;DHT22;2239;48.152;11.584;2023-06-22T04:19:03;19.30;99.90
4453;DHT22;2239;48.152;11.584;2023-06-22T04:21:29;19.40;99.90
4453;DHT22;2239;48.152;11.584;2023-06-22T04:23:55;19.30;99.90
4453;DHT22;2239;48.152;11.584;2023-06-22T04:26:20;19.30;99.90
4453;DHT22;2239;48.152;11.584;2023-06-22T04:28:47;19.40;99.90
4453;DHT22;2239;48.152;11.584;2023-06-22T04:31:17;19.50;99.90
4453;DHT22;2239;48.152;11.584;2023-06-22T04:33:43;19.50;99.90
4453;DHT22;2239;48.152;11.584;2023-06-22T04:36:08;19.50;99.90
4453;DHT22;2239;48.152;11.584;2023-06-22T04:38:34;19.60;99.90
4453;DHT22;2239;48.152;11.584;2023-06-22T04:40:59;19.70;99.90
4453;DHT22;2239;48.152;11.584;2023-06-22T04:43:28;19.80;99.90
4453;DHT22;2239;48.152;11.584;2023-06-22T04:45:56;19.90;99.90
4453;DHT22;2239;48.152;11.584;2023-06-22T04:48:29;19.90;99.90
4453;DHT22;2239;48.152;11.584;2023-06-22T04:50:58;20.00;99.90
4453;DHT22;2239;48.152;11.584;2023-06-22T04:53:28;20.00;99.90
4453;DHT22;2239;48.152;11.584;2023-06-22T04:55:55;20.10;99.90
4453;DHT22;2239;48.152;11.584;2023-06-22T04:58:20;20.10;99.90
4453;DHT22;2239;48.152;11.584;2023-06-22T05:00:47;20.20;99.90
4453;DHT22;2239;48.152;11.584;2023-06-22T05:03:12;20.30;99.90
4453;DHT22;2239;48.152;11.584;2023-06-22T05:05:38;20.40;99.90
4453;DHT22;2239;48.152;11.584;2023-06-22T05:08:03;20.50;99.90
4453;DHT22;2239;48.152;11.584;2023-06-22T05:10:32;20.60;99.90
4453;DHT22;2239;48.152;11.584;2023-06-22T05:12:58;20.80;99.90
4453;DHT22;2239;48.152;11.584;2023-06-22T05:15:23;20.90;99.90
4453;DHT22;2239;48.152;11.584;2023-06-22T05:17:53;21.10;99.90
4453;DHT22;2239;48.152;11.584;2023-06-22T05:20:19;21.20;99.90
4453;DHT22;2239;48.152;11.584;2023-06-22T05:22:44;21.40;99.90
4453;DHT22;2239;48.152;11.584;2023-06-22T05:25:11;21.40;99.90
4453;DHT22;2239;48.152;11.584;2023-06-22T05:27:37;21.40;99.90
4453;DHT22;2239;48.152;11.584;2023-06-22T05:30:07;21.50;99.90
4453;DHT22;2239;48.152;11.584;2023-06-22T05:32:33;21.60;99.90
4453;DHT22;2239;48.152;11.584;2023-06-22T05:34:59;21.70;99.90
4453;DHT22;2239;48.152;11.584;2023-06-22T05:37:24;21.90;99.90
4453;DHT22;2239;48.152;11.584;2023-06-22T05:39:50;22.00;99.90
4453;DHT22;2239;48.152;11.584;2023-06-22T05:42:16;22.10;99.90
4453;DHT22;2239;48.152;11.584;2023-06-22T05:44:41;22.10;99.90
4453;DHT22;2239;48.152;11.584;2023-06-22T05:47:07;22.20;99.90
4453;DHT22;2239;48.152;11.584;2023-06-22T05:49:32;22.20;99.90
4453;DHT22;2239;48.152;11.584;2023-06-22T05:51:59;22.20;99.90
4453;DHT22;2239;48.152;11.584;2023-06-22T05:54:25;22.30;99.90
4453;DHT22;2239;48.152;11.584;2023-06-22T05:56:51;22.30;99.90
4453;DHT22;2239;48.152;11.584;2023-06-22T05:59:17;22.40;99.90
4453;DHT22;2239;48.152;11.584;2023-06-22T06:01:42;22.50;99.90
4453;DHT22;2239;48.152;11.584;2023-06-22T06:04:08;22.60;99.90
4453;DHT22;2239;48.152;11.584;2023-06-22T06:06:34;22.70;99.90
4453;DHT22;2239;48.152;11.584;2023-06-22T06:09:03;22.80;99.90
4453;DHT22;2239;48.152;11.584;2023-06-22T06:11:29;23.00;99.90
4453;DHT22;2239;48.152;11.584;2023-06-22T06:13:54;23.00;99.90
4453;DHT22;2239;48.152;11.584;2023-06-22T06:16:20;23.00;99.90
4453;DHT22;2239;48.152;11.584;2023-06-22T06:18:46;23.20;99.90
4453;DHT22;2239;48.152;11.584;2023-06-22T06:21:11;23.40;99.90
4453;DHT22;2239;48.152;11.584;2023-06-22T06:23:37;23.30;99.90
4453;DHT22;2239;48.152;11.584;2023-06-22T06:26:02;23.20;99.90
4453;DHT22;2239;48.152;11.584;2023-06-22T06:28:32;23.10;99.90
4453;DHT22;2239;48.152;11.584;2023-06-22T06:30:58;23.30;99.90
4453;DHT22;2239;48.152;11.584;2023-06-22T06:33:24;23.50;99.90
4453;DHT22;2239;48.152;11.584;2023-06-22T06:35:49;23.70;99.90
4453;DHT22;2239;48.152;11.584;2023-06-22T06:38:15;23.80;99.90
4453;DHT22;2239;48.152;11.584;2023-06-22T06:40:40;23.80;99.90
4453;DHT22;2239;48.152;11.584;2023-06-22T06:43:06;23.80;99.90
4453;DHT22;2239;48.152;11.584;2023-06-22T06:45:32;23.80;99.90
4453;DHT22;2239;48.152;11.584;2023-06-22T06:47:59;23.80;99.90
4453;DHT22;2239;48.152;11.584;2023-06-22T06:50:25;23.80;99.90
4453;DHT22;2239;48.152;11.584;2023-06-22T06:52:51;24.00;99.90
4453;DHT22;2239;48.152;11.584;2023-06-22T06:55:17;24.30;99.90
4453;DHT22;2239;48.152;11.584;2023-06-22T06:57:44;24.50;99.90
4453;DHT22;2239;48.152;11.584;2023-06-22T07:00:14;24.70;99.90
4453;DHT22;2239;48.152;11.584;2023-06-22T07:02:42;24.80;99.90
4453;DHT22;2239;48.152;11.584;2023-06-22T07:05:08;25.00;99.90
4453;DHT22;2239;48.152;11.584;2023-06-22T07:07:34;24.90;99.90
4453;DHT22;2239;48.152;11.584;2023-06-22T07:10:00;25.10;99.90
4453;DHT22;2239;48.152;11.584;2023-06-22T07:12:26;25.20;99.90
4453;DHT22;2239;48.152;11.584;2023-06-22T07:14:53;25.10;99.90
4453;DHT22;2239;48.152;11.584;2023-06-22T07:17:19;25.30;99.90
4453;DHT22;2239;48.152;11.584;2023-06-22T07:19:45;25.30;99.90
4453;DHT22;2239;48.152;11.584;2023-06-22T07:22:10;25.40;99.90
4453;DHT22;2239;48.152;11.584;2023-06-22T07:24:36;25.60;99.90
4453;DHT22;2239;48.152;11.584;2023-06-22T07:27:02;25.80;99.90
4453;DHT22;2239;48.152;11.584;2023-06-22T07:29:29;25.80;99.90
4453;DHT22;2239;48.152;11.584;2023-06-22T07:31:54;26.00;99.90
4453;DHT22;2239;48.152;11.584;2023-06-22T07:34:22;26.10;99.90
4453;DHT22;2239;48.152;11.584;2023-06-22T07:36:47;26.20;99.90
4453;DHT22;2239;48.152;11.584;2023-06-22T07:39:13;26.30;99.90
4453;DHT22;2239;48.152;11.584;2023-06-22T07:41:40;26.40;99.90
4453;DHT22;2239;48.152;11.584;2023-06-22T07:44:08;26.40;99.90
4453;DHT22;2239;48.152;11.584;2023-06-22T07:46:34;26.50;99.90
4453;DHT22;2239;48.152;11.584;2023-06-22T07:49:00;26.40;99.90
4453;DHT22;2239;48.152;11.584;2023-06-22T07:51:26;26.60;99.90
4453;DHT22;2239;48.152;11.584;2023-06-22T07:53:52;26.80;99.90
4453;DHT22;2239;48.152;11.584;2023-06-22T07:56:17;26.90;99.90
4453;DHT22;2239;48.152;11.584;2023-06-22T07:58:47;27.00;99.90
4453;DHT22;2239;48.152;11.584;2023-06-22T08:01:13;27.10;99.80
4453;DHT22;2239;48.152;11.584;2023-06-22T08:03:41;27.30;99.20
4453;DHT22;2239;48.152;11.584;2023-06-22T08:06:07;27.50;99.00
4453;DHT22;2239;48.152;11.584;2023-06-22T08:08:35;27.60;98.60
4453;DHT22;2239;48.152;11.584;2023-06-22T08:11:00;27.60;98.30
4453;DHT22;2239;48.152;11.584;2023-06-22T08:13:26;27.60;98.40
4453;DHT22;2239;48.152;11.584;2023-06-22T08:15:51;27.60;98.30
4453;DHT22;2239;48.152;11.584;2023-06-22T08:18:17;27.60;98.20
4453;DHT22;2239;48.152;11.584;2023-06-22T08:20:43;27.60;98.30
4453;DHT22;2239;48.152;11.584;2023-06-22T08:23:08;27.70;98.00
4453;DHT22;2239;48.152;11.584;2023-06-22T08:25:34;28.00;97.70
4453;DHT22;2239;48.152;11.584;2023-06-22T08:28:01;28.30;97.20
4453;DHT22;2239;48.152;11.584;2023-06-22T08:30:27;28.60;96.20
4453;DHT22;2239;48.152;11.584;2023-06-22T08:32:52;28.70;95.70
4453;DHT22;2239;48.152;11.584;2023-06-22T08:35:19;28.60;95.60
4453;DHT22;2239;48.152;11.584;2023-06-22T08:37:44;28.70;95.80
4453;DHT22;2239;48.152;11.584;2023-06-22T08:40:20;28.90;95.60
4453;DHT22;2239;48.152;11.584;2023-06-22T08:42:47;28.90;94.90
4453;DHT22;2239;48.152;11.584;2023-06-22T08:45:13;28.80;94.90
4453;DHT22;2239;48.152;11.584;2023-06-22T08:47:40;28.70;95.20
4453;DHT22;2239;48.152;11.584;2023-06-22T08:50:07;28.80;95.60
4453;DHT22;2239;48.152;11.584;2023-06-22T08:52:34;29.10;94.80
4453;DHT22;2239;48.152;11.584;2023-06-22T08:55:00;29.20;93.90
4453;DHT22;2239;48.152;11.584;2023-06-22T08:57:26;29.20;93.90
4453;DHT22;2239;48.152;11.584;2023-06-22T08:59:51;29.20;94.20
4453;DHT22;2239;48.152;11.584;2023-06-22T09:02:18;29.20;94.00
4453;DHT22;2239;48.152;11.584;2023-06-22T09:04:45;29.30;94.10
4453;DHT22;2239;48.152;11.584;2023-06-22T09:07:11;29.50;94.00
4453;DHT22;2239;48.152;11.584;2023-06-22T09:09:37;29.80;93.70
4453;DHT22;2239;48.152;11.584;2023-06-22T09:12:02;30.10;92.90
4453;DHT22;2239;48.152;11.584;2023-06-22T09:14:28;30.20;92.20
4453;DHT22;2239;48.152;11.584;2023-06-22T09:16:54;30.30;91.90
4453;DHT22;2239;48.152;11.584;2023-06-22T09:19:19;30.40;91.60
4453;DHT22;2239;48.152;11.584;2023-06-22T09:21:45;30.50;91.10
4453;DHT22;2239;48.152;11.584;2023-06-22T09:24:10;30.40;91.00
4453;DHT22;2239;48.152;11.584;2023-06-22T09:26:36;30.50;91.00
4453;DHT22;2239;48.152;11.584;2023-06-22T09:29:05;30.50;90.80
4453;DHT22;2239;48.152;11.584;2023-06-22T09:31:30;30.70;90.50
4453;DHT22;2239;48.152;11.584;2023-06-22T09:33:56;30.80;90.50
4453;DHT22;2239;48.152;11.584;2023-06-22T09:36:22;30.90;90.10
4453;DHT22;2239;48.152;11.584;2023-06-22T09:38:48;31.00;89.60
4453;DHT22;2239;48.152;11.584;2023-06-22T09:41:13;31.30;88.60
4453;DHT22;2239;48.152;11.584;2023-06-22T09:43:39;31.30;88.80
4453;DHT22;2239;48.152;11.584;2023-06-22T09:46:05;31.20;88.40
4453;DHT22;2239;48.152;11.584;2023-06-22T09:48:32;31.20;88.90
4453;DHT22;2239;48.152;11.584;2023-06-22T09:50:57;31.20;88.70
4453;DHT22;2239;48.152;11.584;2023-06-22T09:53:23;31.30;88.20
4453;DHT22;2239;48.152;11.584;2023-06-22T09:55:49;31.40;88.10
4453;DHT22;2239;48.152;11.584;2023-06-22T09:58:14;31.50;87.70
4453;DHT22;2239;48.152;11.584;2023-06-22T10:00:40;31.60;87.30
4453;DHT22;2239;48.152;11.584;2023-06-22T10:03:06;31.70;87.00
4453;DHT22;2239;48.152;11.584;2023-06-22T10:05:32;31.60;86.60
4453;DHT22;2239;48.152;11.584;2023-06-22T10:07:58;31.70;86.30
4453;DHT22;2239;48.152;11.584;2023-06-22T10:10:23;31.90;86.60
4453;DHT22;2239;48.152;11.584;2023-06-22T10:12:55;32.20;86.10
4453;DHT22;2239;48.152;11.584;2023-06-22T10:15:22;32.40;85.10
4453;DHT22;2239;48.152;11.584;2023-06-22T10:17:47;32.50;84.90
4453;DHT22;2239;48.152;11.584;2023-06-22T10:20:13;32.70;84.80
4453;DHT22;2239;48.152;11.584;2023-06-22T10:22:41;32.80;84.20
4453;DHT22;2239;48.152;11.584;2023-06-22T10:25:07;32.70;84.00
4453;DHT22;2239;48.152;11.584;2023-06-22T10:27:34;32.70;84.40
4453;DHT22;2239;48.152;11.584;2023-06-22T10:30:00;32.70;84.90
4453;DHT22;2239;48.152;11.584;2023-06-22T10:32:26;32.80;83.00
4453;DHT22;2239;48.152;11.584;2023-06-22T10:34:54;33.00;83.40
4453;DHT22;2239;48.152;11.584;2023-06-22T10:37:19;33.10;82.50
4453;DHT22;2239;48.152;11.584;2023-06-22T10:39:45;33.00;83.10
4453;DHT22;2239;48.152;11.584;2023-06-22T10:42:11;33.00;82.50
4453;DHT22;2239;48.152;11.584;2023-06-22T10:44:37;33.10;83.10
4453;DHT22;2239;48.152;11.584;2023-06-22T10:47:04;33.20;82.30
4453;DHT22;2239;48.152;11.584;2023-06-22T10:49:30;33.50;79.80
4453;DHT22;2239;48.152;11.584;2023-06-22T10:51:55;33.60;79.60
4453;DHT22;2239;48.152;11.584;2023-06-22T10:54:21;33.60;79.50
4453;DHT22;2239;48.152;11.584;2023-06-22T10:56:46;33.60;80.40
4453;DHT22;2239;48.152;11.584;2023-06-22T10:59:12;33.60;80.70
4453;DHT22;2239;48.152;11.584;2023-06-22T11:01:37;33.60;79.80
4453;DHT22;2239;48.152;11.584;2023-06-22T11:04:03;33.70;80.60
4453;DHT22;2239;48.152;11.584;2023-06-22T11:06:29;33.80;79.90
4453;DHT22;2239;48.152;11.584;2023-06-22T11:08:54;33.70;79.80
4453;DHT22;2239;48.152;11.584;2023-06-22T11:11:20;33.40;80.60
4453;DHT22;2239;48.152;11.584;2023-06-22T11:13:45;33.10;81.60
4453;DHT22;2239;48.152;11.584;2023-06-22T11:16:11;32.90;82.50
4453;DHT22;2239;48.152;11.584;2023-06-22T11:18:37;32.70;83.10
4453;DHT22;2239;48.152;11.584;2023-06-22T11:21:02;32.70;82.80
4453;DHT22;2239;48.152;11.584;2023-06-22T11:23:28;32.70;83.50
4453;DHT22;2239;48.152;11.584;2023-06-22T11:25:56;32.80;83.30
4453;DHT22;2239;48.152;11.584;2023-06-22T11:28:23;32.90;83.30
4453;DHT22;2239;48.152;11.584;2023-06-22T11:30:49;32.90;83.00
4453;DHT22;2239;48.152;11.584;2023-06-22T11:33:15;32.90;83.20
4453;DHT22;2239;48.152;11.584;2023-06-22T11:35:40;33.00;83.00
4453;DHT22;2239;48.152;11.584;2023-06-22T11:38:06;33.30;82.50
4453;DHT22;2239;48.152;11.584;2023-06-22T11:40:31;33.50;81.60
4453;DHT22;2239;48.152;11.584;2023-06-22T11:42:57;33.70;80.60
4453;DHT22;2239;48.152;11.584;2023-06-22T11:45:22;33.90;80.10
4453;DHT22;2239;48.152;11.584;2023-06-22T11:47:48;33.80;79.50
4453;DHT22;2239;48.152;11.584;2023-06-22T11:50:14;34.00;79.00
4453;DHT22;2239;48.152;11.584;2023-06-22T11:52:39;33.80;78.90
4453;DHT22;2239;48.152;11.584;2023-06-22T11:55:05;33.80;78.80
4453;DHT22;2239;48.152;11.584;2023-06-22T11:57:36;33.90;78.80
4453;DHT22;2239;48.152;11.584;2023-06-22T12:00:05;34.10;78.30
4453;DHT22;2239;48.152;11.584;2023-06-22T12:02:36;34.30;77.60
4453;DHT22;2239;48.152;11.584;2023-06-22T12:05:01;34.30;76.50
4453;DHT22;2239;48.152;11.584;2023-06-22T12:07:30;34.40;76.10
4453;DHT22;2239;48.152;11.584;2023-06-22T12:09:55;34.50;75.80
4453;DHT22;2239;48.152;11.584;2023-06-22T12:12:21;34.60;75.30
4453;DHT22;2239;48.152;11.584;2023-06-22T12:14:47;34.50;75.20
4453;DHT22;2239;48.152;11.584;2023-06-22T12:17:13;34.30;75.40
4453;DHT22;2239;48.152;11.584;2023-06-22T12:19:38;34.40;75.70
4453;DHT22;2239;48.152;11.584;2023-06-22T12:22:04;34.50;75.30
4453;DHT22;2239;48.152;11.584;2023-06-22T12:24:29;34.60;75.30
4453;DHT22;2239;48.152;11.584;2023-06-22T12:26:55;34.90;74.70
4453;DHT22;2239;48.152;11.584;2023-06-22T12:29:20;35.10;74.50
4453;DHT22;2239;48.152;11.584;2023-06-22T12:31:46;35.30;74.20
4453;DHT22;2239;48.152;11.584;2023-06-22T12:34:11;35.30;74.10
4453;DHT22;2239;48.152;11.584;2023-06-22T12:36:37;35.20;73.30
4453;DHT22;2239;48.152;11.584;2023-06-22T12:39:02;35.30;73.50
4453;DHT22;2239;48.152;11.584;2023-06-22T12:41:28;35.20;73.00
4453;DHT22;2239;48.152;11.584;2023-06-22T12:43:54;34.90;73.50
4453;DHT22;2239;48.152;11.584;2023-06-22T12:46:19;34.80;74.00
4453;DHT22;2239;48.152;11.584;2023-06-22T12:48:45;34.70;74.20
4453;DHT22;2239;48.152;11.584;2023-06-22T12:51:10;34.50;74.80
4453;DHT22;2239;48.152;11.584;2023-06-22T12:53:36;34.20;75.00
4453;DHT22;2239;48.152;11.584;2023-06-22T12:56:02;34.00;75.40
4453;DHT22;2239;48.152;11.584;2023-06-22T12:58:27;34.00;76.00
4453;DHT22;2239;48.152;11.584;2023-06-22T13:00:53;33.90;76.00
4453;DHT22;2239;48.152;11.584;2023-06-22T13:03:18;33.80;76.50
4453;DHT22;2239;48.152;11.584;2023-06-22T13:05:44;33.80;76.80
4453;DHT22;2239;48.152;11.584;2023-06-22T13:08:10;33.80;76.70
4453;DHT22;2239;48.152;11.584;2023-06-22T13:10:36;34.00;75.80
4453;DHT22;2239;48.152;11.584;2023-06-22T13:13:01;34.10;75.60
4453;DHT22;2239;48.152;11.584;2023-06-22T13:15:28;34.10;75.90
4453;DHT22;2239;48.152;11.584;2023-06-22T13:17:54;34.10;75.70
4453;DHT22;2239;48.152;11.584;2023-06-22T13:20:20;34.30;75.70
4453;DHT22;2239;48.152;11.584;2023-06-22T13:22:45;34.40;74.90
4453;DHT22;2239;48.152;11.584;2023-06-22T13:25:11;34.50;75.40
4453;DHT22;2239;48.152;11.584;2023-06-22T13:27:38;34.70;75.30
4453;DHT22;2239;48.152;11.584;2023-06-22T13:30:05;34.70;74.20
4453;DHT22;2239;48.152;11.584;2023-06-22T13:32:30;34.70;74.20
4453;DHT22;2239;48.152;11.584;2023-06-22T13:34:57;34.80;74.10
4453;DHT22;2239;48.152;11.584;2023-06-22T13:37:23;34.60;74.90
4453;DHT22;2239;48.152;11.584;2023-06-22T13:39:48;34.60;75.60
4453;DHT22;2239;48.152;11.584;2023-06-22T13:42:14;34.60;75.80
4453;DHT22;2239;48.152;11.584;2023-06-22T13:44:39;34.50;76.20
4453;DHT22;2239;48.152;11.584;2023-06-22T13:47:06;34.40;75.70
4453;DHT22;2239;48.152;11.584;2023-06-22T13:49:31;34.50;75.80
4453;DHT22;2239;48.152;11.584;2023-06-22T13:51:57;34.70;75.40
4453;DHT22;2239;48.152;11.584;2023-06-22T13:54:23;34.70;74.60
4453;DHT22;2239;48.152;11.584;2023-06-22T13:56:48;34.90;74.40
4453;DHT22;2239;48.152;11.584;2023-06-22T13:59:14;34.90;75.00
4453;DHT22;2239;48.152;11.584;2023-06-22T14:01:39;34.90;74.60
4453;DHT22;2239;48.152;11.584;2023-06-22T14:04:06;35.00;74.40
4453;DHT22;2239;48.152;11.584;2023-06-22T14:06:32;35.00;74.20
4453;DHT22;2239;48.152;11.584;2023-06-22T14:08:58;35.00;74.20
4453;DHT22;2239;48.152;11.584;2023-06-22T14:11:25;35.00;74.00
4453;DHT22;2239;48.152;11.584;2023-06-22T14:13:51;35.00;73.20
4453;DHT22;2239;48.152;11.584;2023-06-22T14:16:16;35.00;73.30
4453;DHT22;2239;48.152;11.584;2023-06-22T14:18:42;35.00;73.20
4453;DHT22;2239;48.152;11.584;2023-06-22T14:21:08;35.00;72.90
4453;DHT22;2239;48.152;11.584;2023-06-22T14:23:33;35.00;73.20
4453;DHT22;2239;48.152;11.584;2023-06-22T14:25:59;34.90;72.90
4453;DHT22;2239;48.152;11.584;2023-06-22T14:28:25;34.80;72.70
4453;DHT22;2239;48.152;11.584;2023-06-22T14:30:50;34.70;73.30
4453;DHT22;2239;48.152;11.584;2023-06-22T14:33:16;34.70;73.40
4453;DHT22;2239;48.152;11.584;2023-06-22T14:35:41;34.70;73.60
4453;DHT22;2239;48.152;11.584;2023-06-22T14:38:07;34.70;73.90
4453;DHT22;2239;48.152;11.584;2023-06-22T14:40:33;34.80;73.50
4453;DHT22;2239;48.152;11.584;2023-06-22T14:42:58;34.80;72.40
4453;DHT22;2239;48.152;11.584;2023-06-22T14:45:24;34.80;71.80
4453;DHT22;2239;48.152;11.584;2023-06-22T14:47:50;34.80;70.90
4453;DHT22;2239;48.152;11.584;2023-06-22T14:50:15;34.90;72.20
4453;DHT22;2239;48.152;11.584;2023-06-22T14:52:41;34.90;72.40
4453;DHT22;2239;48.152;11.584;2023-06-22T14:55:07;34.80;71.80
4453;DHT22;2239;48.152;11.584;2023-06-22T14:57:33;34.70;71.20
4453;DHT22;2239;48.152;11.584;2023-06-22T14:59:59;34.70;71.70
4453;DHT22;2239;48.152;11.584;2023-06-22T15:02:26;34.70;72.10
4453;DHT22;2239;48.152;11.584;2023-06-22T15:04:52;34.70;70.00
4453;DHT22;2239;48.152;11.584;2023-06-22T15:07:18;34.70;70.50
4453;DHT22;2239;48.152;11.584;2023-06-22T15:09:45;34.50;71.00
4453;DHT22;2239;48.152;11.584;2023-06-22T15:12:10;34.60;70.30
4453;DHT22;2239;48.152;11.584;2023-06-22T15:14:40;34.60;70.00
4453;DHT22;2239;48.152;11.584;2023-06-22T15:17:07;34.70;70.40
4453;DHT22;2239;48.152;11.584;2023-06-22T15:19:37;34.80;69.40
4453;DHT22;2239;48.152;11.584;2023-06-22T15:22:04;34.80;69.20
4453;DHT22;2239;48.152;11.584;2023-06-22T15:24:31;34.90;69.50
4453;DHT22;2239;48.152;11.584;2023-06-22T15:26:56;34.60;69.80
4453;DHT22;2239;48.152;11.584;2023-06-22T15:29:22;34.50;70.00
4453;DHT22;2239;48.152;11.584;2023-06-22T15:31:48;34.30;68.80
4453;DHT22;2239;48.152;11.584;2023-06-22T15:34:13;34.20;68.50
4453;DHT22;2239;48.152;11.584;2023-06-22T15:36:39;34.00;69.50
4453;DHT22;2239;48.152;11.584;2023-06-22T15:39:05;33.90;70.30
4453;DHT22;2239;48.152;11.584;2023-06-22T15:41:30;34.00;70.10
4453;DHT22;2239;48.152;11.584;2023-06-22T15:43:56;34.00;69.70